Time;durP1;ratioP1;P1;durP2;ratioP2;P2;SDS_P1;SDS_P2;PMS_P1;PMS_P2;Temp;Humidity;BMP_temperature;BMP_pressure;BME280_temperature;BME280_humidity;BME280_pressure;Samples;Min_cycle;Max_cycle;Signal;HPM_P1;HPM_P2
2023/10/26 00:01:35;;;;;;;;;;;10.30;99.90;;;;;;8354465;28;19940;-70
2023/10/26 00:05:37;;;;;;;;;;;10.20;99.90;;;;;;8344291;28;19933;-70
2023/10/26 00:09:39;;;;;;;;;;;10.20;99.90;;;;;;8343299;28;19925;-70
2023/10/26 00:13:40;;;;;;;;;;;10.20;99.90;;;;;;8358313;28;19932;-70
2023/10/26 00:17:42;;;;;;;;;;;10.20;99.90;;;;;;8354874;28;19928;-70
2023/10/26 00:21:44;;;;;;;;;;;10.20;99.90;;;;;;8352039;28;19929;-70
2023/10/26 00:25:45;;;;;;;;;;;10.20;99.90;;;;;;8353118;28;19925;-70
2023/10/26 00:29:47;;;;;;;;;;;10.20;99.90;;;;;;8326168;28;19924;-70
2023/10/26 00:33:49;;;;;;;;;;;10.20;99.90;;;;;;8340810;28;20010;-70
2023/10/26 00:37:51;;;;;;;;;;;10.20;99.90;;;;;;8319003;28;20367;-70
2023/10/26 00:41:53;;;;;;;;;;;10.20;99.90;;;;;;8330443;28;19979;-70
2023/10/26 00:45:55;;;;;;;;;;;10.20;99.90;;;;;;8333588;28;19936;-70
2023/10/26 00:49:56;;;;;;;;;;;10.20;99.90;;;;;;8317680;28;19925;-70
2023/10/26 00:53:58;;;;;;;;;;;10.20;99.90;;;;;;8358290;28;19991;-70
2023/10/26 00:58:00;;;;;;;;;;;10.20;99.90;;;;;;8351227;28;19932;-70
2023/10/26 01:02:02;;;;;;;;;;;10.30;99.90;;;;;;8357363;28;19932;-70
2023/10/26 01:06:04;;;;;;;;;;;10.30;99.90;;;;;;8357579;28;19925;-70
2023/10/26 01:10:06;;;;;;;;;;;10.30;99.90;;;;;;8344826;28;21787;-70
2023/10/26 01:14:08;;;;;;;;;;;10.40;99.90;;;;;;8330085;28;20380;-70
2023/10/26 01:18:09;;;;;;;;;;;10.40;99.90;;;;;;8358036;28;19925;-70
2023/10/26 01:22:11;;;;;;;;;;;10.50;99.90;;;;;;8358263;28;19928;-70
2023/10/26 01:26:13;;;;;;;;;;;10.50;99.90;;;;;;8355989;28;19924;-70
2023/10/26 01:30:16;;;;;;;;;;;10.50;99.90;;;;;;8337437;28;19932;-70
2023/10/26 01:34:18;;;;;;;;;;;10.50;99.90;;;;;;8358907;28;20288;-70
2023/10/26 01:38:20;;;;;;;;;;;10.50;99.90;;;;;;8357047;28;19932;-70
2023/10/26 01:42:21;;;;;;;;;;;10.50;99.90;;;;;;8355297;28;19932;-70
2023/10/26 01:46:23;;;;;;;;;;;10.50;99.90;;;;;;8356707;28;19986;-70
2023/10/26 01:50:25;;;;;;;;;;;10.50;99.90;;;;;;8354244;28;19924;-70
2023/10/26 01:54:26;;;;;;;;;;;10.50;99.90;;;;;;8344223;28;19925;-70
2023/10/26 01:58:28;;;;;;;;;;;10.50;99.90;;;;;;8338907;28;20364;-70
2023/10/26 02:02:30;;;;;;;;;;;10.50;99.90;;;;;;8354449;28;20311;-70
2023/10/26 02:06:31;;;;;;;;;;;10.60;99.90;;;;;;8359239;28;19968;-70
2023/10/26 02:10:33;;;;;;;;;;;10.60;99.90;;;;;;8352829;28;19978;-70
2023/10/26 02:14:35;;;;;;;;;;;10.60;99.90;;;;;;8339122;28;19932;-70
2023/10/26 02:18:36;;;;;;;;;;;10.50;99.90;;;;;;8356145;28;19978;-70
2023/10/26 02:22:38;;;;;;;;;;;10.50;99.90;;;;;;8355618;28;19929;-70
2023/10/26 02:26:40;;;;;;;;;;;10.50;99.90;;;;;;8357840;28;19925;-70
2023/10/26 02:30:45;;;;;;;;;;;10.50;99.90;;;;;;8355212;28;19925;-70
2023/10/26 02:34:47;;;;;;;;;;;10.50;99.90;;;;;;8339860;28;20589;-70
2023/10/26 02:38:48;;;;;;;;;;;10.50;99.90;;;;;;8338993;28;19990;-70
2023/10/26 02:42:50;;;;;;;;;;;10.50;99.90;;;;;;8355259;28;19924;-71
2023/10/26 02:46:51;;;;;;;;;;;10.50;99.90;;;;;;8356419;28;19929;-70
2023/10/26 02:50:53;;;;;;;;;;;10.40;99.90;;;;;;8338658;28;19925;-70
2023/10/26 02:54:55;;;;;;;;;;;10.40;99.90;;;;;;8358260;28;19986;-70
2023/10/26 02:58:56;;;;;;;;;;;10.50;99.90;;;;;;8356059;28;20368;-70
2023/10/26 03:02:58;;;;;;;;;;;10.60;99.90;;;;;;8335405;28;19925;-70
2023/10/26 03:07:00;;;;;;;;;;;10.60;99.90;;;;;;8356339;28;19925;-70
2023/10/26 03:11:02;;;;;;;;;;;10.60;99.90;;;;;;8352128;28;20051;-70
2023/10/26 03:15:04;;;;;;;;;;;10.60;99.90;;;;;;8355937;28;20288;-70
2023/10/26 03:19:05;;;;;;;;;;;10.60;99.90;;;;;;8340286;28;19929;-70
2023/10/26 03:23:07;;;;;;;;;;;10.50;99.90;;;;;;8355592;28;19925;-70
2023/10/26 03:27:09;;;;;;;;;;;10.50;99.90;;;;;;8353365;28;19928;-70
2023/10/26 03:31:11;;;;;;;;;;;10.60;99.90;;;;;;8342970;28;19959;-70
2023/10/26 03:35:13;;;;;;;;;;;10.50;99.90;;;;;;8361929;28;19925;-70
2023/10/26 03:39:14;;;;;;;;;;;10.50;99.90;;;;;;8363388;28;19925;-70
2023/10/26 03:43:16;;;;;;;;;;;10.50;99.90;;;;;;8367978;28;19979;-70
2023/10/26 03:47:18;;;;;;;;;;;10.50;99.90;;;;;;8360188;28;19924;-70
2023/10/26 03:51:20;;;;;;;;;;;10.60;99.90;;;;;;8357720;28;19960;-70
2023/10/26 03:55:22;;;;;;;;;;;10.50;99.90;;;;;;8362626;28;19931;-70
2023/10/26 03:59:24;;;;;;;;;;;10.50;99.90;;;;;;8363286;28;19947;-70
2023/10/26 04:03:25;;;;;;;;;;;10.50;99.90;;;;;;8360270;28;19964;-70
2023/10/26 04:07:27;;;;;;;;;;;10.50;99.90;;;;;;8361336;28;20380;-70
2023/10/26 04:11:29;;;;;;;;;;;10.40;99.90;;;;;;8354139;28;19925;-70
2023/10/26 04:15:30;;;;;;;;;;;10.40;99.90;;;;;;8358581;28;19932;-70
2023/10/26 04:19:33;;;;;;;;;;;10.40;99.90;;;;;;8359763;28;19931;-70
2023/10/26 04:23:35;;;;;;;;;;;10.40;99.90;;;;;;8360002;28;19925;-70
2023/10/26 04:27:37;;;;;;;;;;;10.30;99.90;;;;;;8358793;28;19925;-70
2023/10/26 04:31:38;;;;;;;;;;;10.30;99.90;;;;;;8358671;28;20331;-70
2023/10/26 04:35:41;;;;;;;;;;;10.30;99.90;;;;;;8360330;28;19925;-70
2023/10/26 04:39:46;;;;;;;;;;;10.30;99.90;;;;;;8359945;28;19929;-70
2023/10/26 04:43:47;;;;;;;;;;;10.30;99.90;;;;;;8337664;28;20022;-70
2023/10/26 04:47:49;;;;;;;;;;;10.30;99.90;;;;;;8357863;28;19925;-70
2023/10/26 04:51:51;;;;;;;;;;;10.30;99.90;;;;;;8356108;28;19929;-70
2023/10/26 04:55:52;;;;;;;;;;;10.30;99.90;;;;;;8357040;28;20388;-70
2023/10/26 04:59:54;;;;;;;;;;;10.30;99.90;;;;;;8356415;28;19931;-70
2023/10/26 05:03:56;;;;;;;;;;;10.30;99.90;;;;;;8335174;28;20634;-70
2023/10/26 05:07:58;;;;;;;;;;;10.20;99.90;;;;;;8354532;28;19925;-70
2023/10/26 05:11:59;;;;;;;;;;;10.10;99.90;;;;;;8353806;28;19924;-70
2023/10/26 05:16:02;;;;;;;;;;;10.10;99.90;;;;;;8354586;28;19966;-70
2023/10/26 05:20:04;;;;;;;;;;;10.10;99.90;;;;;;8362943;28;19932;-70
2023/10/26 05:24:06;;;;;;;;;;;10.10;99.90;;;;;;8355306;28;19936;-70
2023/10/26 05:28:07;;;;;;;;;;;10.00;99.90;;;;;;8355490;28;19928;-70
2023/10/26 05:32:09;;;;;;;;;;;10.00;99.90;;;;;;8358680;28;19929;-70
2023/10/26 05:36:10;;;;;;;;;;;10.00;99.90;;;;;;8359789;28;19925;-70
2023/10/26 05:40:12;;;;;;;;;;;9.90;99.90;;;;;;8343321;28;19928;-70
2023/10/26 05:44:14;;;;;;;;;;;9.90;99.90;;;;;;8359587;28;19925;-70
2023/10/26 05:48:18;;;;;;;;;;;9.90;99.90;;;;;;8370057;28;19963;-70
2023/10/26 05:52:20;;;;;;;;;;;9.80;99.90;;;;;;8338620;28;20023;-70
2023/10/26 05:56:22;;;;;;;;;;;9.80;99.90;;;;;;8353671;28;19982;-70
2023/10/26 06:00:25;;;;;;;;;;;9.80;99.90;;;;;;8353322;28;19932;-70
2023/10/26 06:04:27;;;;;;;;;;;9.70;99.90;;;;;;8355670;28;19925;-70
2023/10/26 06:08:29;;;;;;;;;;;9.70;99.90;;;;;;8347657;28;20285;-70
2023/10/26 06:12:31;;;;;;;;;;;9.70;99.90;;;;;;8353860;28;19967;-70
2023/10/26 06:16:33;;;;;;;;;;;9.60;99.90;;;;;;8329931;28;19933;-70
2023/10/26 06:20:34;;;;;;;;;;;9.60;99.90;;;;;;8356670;28;19929;-70
2023/10/26 06:24:36;;;;;;;;;;;9.60;99.90;;;;;;8356532;28;20062;-70
2023/10/26 06:28:38;;;;;;;;;;;9.50;99.90;;;;;;8354003;28;20008;-70
2023/10/26 06:32:39;;;;;;;;;;;9.40;99.90;;;;;;8356742;28;19924;-70
2023/10/26 06:36:42;;;;;;;;;;;9.40;99.90;;;;;;8351148;28;20374;-69
2023/10/26 06:40:45;;;;;;;;;;;9.40;99.90;;;;;;8360961;28;20376;-70
2023/10/26 06:44:47;;;;;;;;;;;9.40;99.90;;;;;;8351820;28;20376;-70
2023/10/26 06:48:48;;;;;;;;;;;9.40;99.90;;;;;;8352679;28;20360;-70
2023/10/26 06:52:50;;;;;;;;;;;9.40;99.90;;;;;;8353582;28;19925;-70
2023/10/26 06:56:51;;;;;;;;;;;9.40;99.90;;;;;;8353101;28;19959;-69
2023/10/26 07:00:53;;;;;;;;;;;9.50;99.90;;;;;;8352754;28;19944;-70
2023/10/26 07:04:55;;;;;;;;;;;9.50;99.90;;;;;;8353759;28;19925;-70
2023/10/26 07:08:58;;;;;;;;;;;9.50;99.90;;;;;;8350907;28;19925;-70
2023/10/26 07:13:00;;;;;;;;;;;9.50;99.90;;;;;;8354623;28;20283;-70
2023/10/26 07:17:02;;;;;;;;;;;9.40;99.90;;;;;;8336003;28;19929;-70
2023/10/26 07:21:04;;;;;;;;;;;9.40;99.90;;;;;;8354575;28;19925;-70
2023/10/26 07:25:06;;;;;;;;;;;9.40;99.90;;;;;;8352669;28;19925;-69
2023/10/26 07:29:08;;;;;;;;;;;9.30;99.90;;;;;;8357391;28;19940;-70
2023/10/26 07:33:10;;;;;;;;;;;9.20;99.90;;;;;;8353163;28;19929;-70
2023/10/26 07:37:11;;;;;;;;;;;9.20;99.90;;;;;;8353953;28;19978;-70
2023/10/26 07:41:13;;;;;;;;;;;9.30;99.90;;;;;;8352735;28;19932;-69
2023/10/26 07:45:15;;;;;;;;;;;9.30;99.90;;;;;;8354531;28;19979;-69
2023/10/26 07:49:16;;;;;;;;;;;9.40;99.90;;;;;;8354817;28;19939;-70
2023/10/26 07:53:18;;;;;;;;;;;9.30;99.90;;;;;;8352205;28;20281;-70
2023/10/26 07:57:20;;;;;;;;;;;9.40;99.90;;;;;;8353192;28;19925;-70
2023/10/26 08:01:22;;;;;;;;;;;9.40;99.90;;;;;;8353656;28;19936;-70
2023/10/26 08:05:24;;;;;;;;;;;9.40;99.90;;;;;;8349478;28;19931;-69
2023/10/26 08:09:28;;;;;;;;;;;9.40;99.90;;;;;;8346787;28;20055;-69
2023/10/26 08:13:30;;;;;;;;;;;9.40;99.90;;;;;;8354751;28;19924;-70
2023/10/26 08:17:32;;;;;;;;;;;9.50;99.90;;;;;;8353841;28;19929;-70
2023/10/26 08:21:34;;;;;;;;;;;9.60;99.90;;;;;;8359989;28;19924;-69
2023/10/26 08:25:36;;;;;;;;;;;9.60;99.90;;;;;;8356460;28;19932;-70
2023/10/26 08:29:38;;;;;;;;;;;9.60;99.90;;;;;;8361223;28;20430;-70
2023/10/26 08:33:39;;;;;;;;;;;9.50;99.90;;;;;;8357634;28;20027;-70
2023/10/26 08:37:41;;;;;;;;;;;9.50;99.90;;;;;;8357003;28;19972;-70
2023/10/26 08:41:45;;;;;;;;;;;9.50;99.90;;;;;;8343643;28;19936;-69
2023/10/26 08:45:47;;;;;;;;;;;9.60;99.90;;;;;;8350642;28;19940;-69
2023/10/26 08:49:52;;;;;;;;;;;9.60;99.90;;;;;;8358235;28;19932;-69
2023/10/26 08:54:09;;;;;;;;;;;9.70;99.90;;;;;;8352330;28;19924;-70
2023/10/26 08:58:10;;;;;;;;;;;9.70;99.90;;;;;;8358600;28;19967;-70
2023/10/26 09:02:12;;;;;;;;;;;9.80;99.90;;;;;;8351987;28;20343;-70
2023/10/26 09:06:14;;;;;;;;;;;9.80;99.90;;;;;;8334628;28;19979;-70
2023/10/26 09:10:28;;;;;;;;;;;9.90;99.90;;;;;;8351359;28;19981;-69
2023/10/26 09:14:30;;;;;;;;;;;9.90;99.90;;;;;;8353554;28;19929;-70
2023/10/26 09:18:33;;;;;;;;;;;10.00;99.90;;;;;;8322655;28;20332;-70
2023/10/26 09:22:36;;;;;;;;;;;10.10;99.90;;;;;;8323329;28;20023;-70
2023/10/26 09:26:40;;;;;;;;;;;10.10;99.90;;;;;;8320868;28;20400;-70
2023/10/26 09:30:42;;;;;;;;;;;10.10;99.90;;;;;;8306275;28;19976;-69
2023/10/26 09:34:45;;;;;;;;;;;10.20;99.90;;;;;;8321403;28;19924;-69
2023/10/26 09:38:47;;;;;;;;;;;10.20;99.90;;;;;;8325340;28;19933;-70
2023/10/26 09:42:49;;;;;;;;;;;10.20;99.90;;;;;;8321266;28;20361;-70
2023/10/26 09:46:51;;;;;;;;;;;10.30;99.90;;;;;;8320717;28;20395;-70
2023/10/26 09:50:53;;;;;;;;;;;10.30;99.90;;;;;;8322488;28;19939;-70
2023/10/26 09:54:54;;;;;;;;;;;10.30;99.90;;;;;;8321684;28;19933;-70
2023/10/26 09:58:57;;;;;;;;;;;10.40;99.90;;;;;;8324245;28;19925;-69
2023/10/26 10:03:13;;;;;;;;;;;10.40;99.90;;;;;;8322732;28;19929;-70
2023/10/26 10:07:18;;;;;;;;;;;10.50;99.90;;;;;;8321217;28;20376;-70
2023/10/26 10:11:20;;;;;;;;;;;10.50;99.90;;;;;;8320998;28;19925;-70
2023/10/26 10:15:48;;;;;;;;;;;10.60;99.90;;;;;;8304429;28;20102;-70
2023/10/26 10:20:12;;;;;;;;;;;10.60;99.90;;;;;;8321066;28;19983;-70
2023/10/26 10:24:32;;;;;;;;;;;10.70;99.90;;;;;;8319093;28;20013;-70
2023/10/26 10:28:41;;;;;;;;;;;10.80;99.90;;;;;;8334377;28;19929;-69
2023/10/26 10:32:42;;;;;;;;;;;10.90;99.90;;;;;;8326323;28;19933;-70
2023/10/26 10:37:03;;;;;;;;;;;10.90;99.90;;;;;;8321060;28;19932;-70
2023/10/26 10:41:05;;;;;;;;;;;10.90;99.90;;;;;;8317628;28;20011;-70
2023/10/26 10:45:13;;;;;;;;;;;10.90;99.90;;;;;;8319143;28;20155;-70
2023/10/26 10:49:16;;;;;;;;;;;10.80;99.90;;;;;;8318737;28;19932;-71
2023/10/26 10:53:18;;;;;;;;;;;10.80;99.90;;;;;;8322710;28;19933;-70
2023/10/26 10:57:19;;;;;;;;;;;10.90;99.90;;;;;;8322083;28;19937;-70
2023/10/26 11:01:21;;;;;;;;;;;10.90;99.90;;;;;;8316916;28;19929;-70
2023/10/26 11:05:36;;;;;;;;;;;10.90;99.90;;;;;;8317923;28;20036;-70
2023/10/26 11:09:39;;;;;;;;;;;10.90;99.90;;;;;;8317952;28;20652;-70
2023/10/26 11:13:41;;;;;;;;;;;10.80;99.90;;;;;;8320697;28;19925;-70
2023/10/26 11:17:43;;;;;;;;;;;10.80;99.90;;;;;;8321748;28;20008;-70
2023/10/26 11:21:44;;;;;;;;;;;10.70;99.90;;;;;;8321279;28;19925;-70
2023/10/26 11:25:46;;;;;;;;;;;10.60;99.90;;;;;;8323316;28;20292;-70
2023/10/26 11:30:02;;;;;;;;;;;10.60;99.90;;;;;;8319524;28;19932;-70
2023/10/26 11:34:05;;;;;;;;;;;10.50;99.90;;;;;;8322789;28;19964;-70
2023/10/26 11:38:07;;;;;;;;;;;10.50;99.90;;;;;;8316181;28;19937;-70
2023/10/26 11:42:09;;;;;;;;;;;10.50;99.90;;;;;;8321303;28;20284;-71
2023/10/26 11:46:10;;;;;;;;;;;10.60;99.90;;;;;;8320796;28;19925;-70
2023/10/26 11:50:29;;;;;;;;;;;10.60;99.90;;;;;;8319290;28;19944;-71
2023/10/26 11:54:31;;;;;;;;;;;10.70;99.90;;;;;;8322446;28;19972;-70
2023/10/26 11:58:35;;;;;;;;;;;10.70;99.90;;;;;;8323575;28;19935;-70
2023/10/26 12:02:37;;;;;;;;;;;10.70;99.90;;;;;;8310721;28;19925;-70
2023/10/26 12:06:39;;;;;;;;;;;10.70;99.90;;;;;;8324657;28;19987;-69
2023/10/26 12:10:41;;;;;;;;;;;10.70;99.90;;;;;;8325531;28;19925;-70
2023/10/26 12:14:43;;;;;;;;;;;10.70;99.90;;;;;;8324535;28;19958;-70
2023/10/26 12:18:44;;;;;;;;;;;10.60;99.90;;;;;;8325923;28;19933;-69
2023/10/26 12:22:51;;;;;;;;;;;10.60;99.90;;;;;;8328364;28;19972;-70
2023/10/26 12:26:56;;;;;;;;;;;10.60;99.90;;;;;;8327519;28;20380;-70
2023/10/26 12:30:58;;;;;;;;;;;10.60;99.90;;;;;;8324380;28;19966;-69
2023/10/26 12:35:00;;;;;;;;;;;10.70;99.90;;;;;;8327350;28;19943;-70
2023/10/26 12:39:02;;;;;;;;;;;10.70;99.90;;;;;;8325449;28;19975;-70
2023/10/26 12:43:04;;;;;;;;;;;10.70;99.90;;;;;;8324975;28;19936;-70
2023/10/26 12:47:06;;;;;;;;;;;10.80;99.90;;;;;;8325573;28;20525;-70
2023/10/26 12:51:08;;;;;;;;;;;10.90;99.90;;;;;;8324544;28;19936;-69
2023/10/26 12:55:09;;;;;;;;;;;10.90;99.90;;;;;;8323413;28;19947;-70
2023/10/26 12:59:11;;;;;;;;;;;10.90;99.90;;;;;;8322124;28;20394;-69
2023/10/26 13:03:12;;;;;;;;;;;11.00;99.90;;;;;;8325878;28;19979;-70
2023/10/26 13:07:14;;;;;;;;;;;11.00;99.90;;;;;;8338043;28;19925;-70
2023/10/26 13:11:16;;;;;;;;;;;11.10;99.90;;;;;;8324538;28;19936;-70
2023/10/26 13:15:17;;;;;;;;;;;11.10;99.90;;;;;;8320482;28;19932;-70
2023/10/26 13:19:22;;;;;;;;;;;11.20;99.90;;;;;;8323169;28;19929;-70
2023/10/26 13:23:24;;;;;;;;;;;11.20;99.90;;;;;;8322704;28;20535;-70
2023/10/26 13:27:26;;;;;;;;;;;11.20;99.90;;;;;;8327495;28;20049;-70
2023/10/26 13:31:27;;;;;;;;;;;11.30;99.90;;;;;;8322827;28;19968;-69
2023/10/26 13:35:30;;;;;;;;;;;11.30;99.90;;;;;;8320634;28;20031;-70
2023/10/26 13:39:31;;;;;;;;;;;11.20;99.90;;;;;;8322479;28;19928;-70
2023/10/26 13:43:33;;;;;;;;;;;11.30;99.90;;;;;;8305794;28;19984;-70
2023/10/26 13:47:35;;;;;;;;;;;11.30;99.90;;;;;;8322187;28;20395;-70
2023/10/26 13:51:37;;;;;;;;;;;11.40;99.90;;;;;;8305910;28;20382;-70
2023/10/26 13:55:38;;;;;;;;;;;11.50;99.90;;;;;;8319496;28;19932;-70
2023/10/26 13:59:41;;;;;;;;;;;11.60;99.90;;;;;;8322287;28;20431;-70
2023/10/26 14:03:42;;;;;;;;;;;11.80;99.90;;;;;;8319468;28;20360;-70
2023/10/26 14:07:44;;;;;;;;;;;12.00;99.90;;;;;;8322935;28;19925;-70
2023/10/26 14:11:46;;;;;;;;;;;12.20;99.90;;;;;;8321279;28;19933;-70
2023/10/26 14:15:47;;;;;;;;;;;12.30;99.90;;;;;;8320984;28;19936;-70
2023/10/26 14:19:49;;;;;;;;;;;12.30;99.90;;;;;;8320758;28;19929;-70
2023/10/26 14:23:50;;;;;;;;;;;12.30;99.90;;;;;;8321770;28;19975;-70
2023/10/26 14:27:52;;;;;;;;;;;12.30;99.90;;;;;;8301290;28;19932;-70
2023/10/26 14:31:54;;;;;;;;;;;12.30;99.90;;;;;;8320949;28;19929;-70
2023/10/26 14:35:55;;;;;;;;;;;12.20;99.90;;;;;;8321597;28;19971;-70
2023/10/26 14:39:57;;;;;;;;;;;12.20;99.90;;;;;;8317777;28;19950;-70
2023/10/26 14:43:59;;;;;;;;;;;12.10;99.90;;;;;;8317458;28;20468;-70
2023/10/26 14:48:00;;;;;;;;;;;12.10;99.90;;;;;;8317976;28;20358;-70
2023/10/26 14:52:03;;;;;;;;;;;12.00;99.90;;;;;;8315438;28;20023;-70
2023/10/26 14:56:05;;;;;;;;;;;12.00;99.90;;;;;;8319764;28;19929;-70
2023/10/26 15:00:07;;;;;;;;;;;12.10;99.90;;;;;;8322407;28;19933;-70
2023/10/26 15:04:10;;;;;;;;;;;12.10;99.90;;;;;;8320249;28;19928;-70
2023/10/26 15:08:12;;;;;;;;;;;12.10;99.90;;;;;;8319784;28;19925;-70
2023/10/26 15:12:13;;;;;;;;;;;12.10;99.90;;;;;;8320601;28;20384;-70
2023/10/26 15:16:15;;;;;;;;;;;12.10;99.90;;;;;;8321518;28;20384;-70
2023/10/26 15:20:17;;;;;;;;;;;12.10;99.90;;;;;;8322608;28;19964;-70
2023/10/26 15:24:19;;;;;;;;;;;12.10;99.90;;;;;;8322850;28;20055;-70
2023/10/26 15:28:21;;;;;;;;;;;12.10;99.90;;;;;;8323845;28;19932;-70
2023/10/26 15:32:23;;;;;;;;;;;12.00;99.90;;;;;;8327627;28;19929;-70
2023/10/26 15:36:24;;;;;;;;;;;12.00;99.90;;;;;;8323600;28;19971;-71
2023/10/26 15:40:26;;;;;;;;;;;12.00;99.90;;;;;;8328056;28;21072;-70
2023/10/26 15:44:28;;;;;;;;;;;11.90;99.90;;;;;;8325118;28;19933;-70
2023/10/26 15:48:31;;;;;;;;;;;11.90;99.90;;;;;;8324724;28;19925;-70
2023/10/26 15:52:52;;;;;;;;;;;11.80;99.90;;;;;;8326222;28;20027;-70
2023/10/26 15:56:54;;;;;;;;;;;11.80;99.90;;;;;;8327720;28;19979;-70
2023/10/26 16:00:59;;;;;;;;;;;11.70;99.90;;;;;;8327339;28;19932;-70
2023/10/26 16:05:01;;;;;;;;;;;11.70;99.90;;;;;;8329100;28;19926;-70
2023/10/26 16:09:03;;;;;;;;;;;11.60;99.90;;;;;;8311297;28;19936;-70
2023/10/26 16:13:05;;;;;;;;;;;11.60;99.90;;;;;;8330482;28;20008;-70
2023/10/26 16:17:06;;;;;;;;;;;11.50;99.90;;;;;;8327993;28;19929;-70
2023/10/26 16:21:08;;;;;;;;;;;11.50;99.90;;;;;;8328296;28;19933;-70
2023/10/26 16:25:10;;;;;;;;;;;11.50;99.90;;;;;;8327121;28;19936;-70
2023/10/26 16:29:11;;;;;;;;;;;11.40;99.90;;;;;;8323695;28;20387;-70
2023/10/26 16:33:13;;;;;;;;;;;11.40;99.90;;;;;;8323975;28;19929;-70
2023/10/26 16:37:15;;;;;;;;;;;11.40;99.90;;;;;;8325801;28;19925;-70
2023/10/26 16:41:18;;;;;;;;;;;11.40;99.90;;;;;;8310385;28;19980;-70
2023/10/26 16:45:19;;;;;;;;;;;11.40;99.90;;;;;;8324433;28;19932;-70
2023/10/26 16:49:21;;;;;;;;;;;11.40;99.90;;;;;;8328959;28;19925;-70
2023/10/26 16:53:25;;;;;;;;;;;11.40;99.90;;;;;;8322928;28;20316;-70
2023/10/26 16:57:30;;;;;;;;;;;11.40;99.90;;;;;;8325164;28;19976;-70
2023/10/26 17:01:32;;;;;;;;;;;11.40;99.90;;;;;;8310766;28;19933;-70
2023/10/26 17:05:34;;;;;;;;;;;11.40;99.90;;;;;;8325662;28;19970;-70
2023/10/26 17:09:36;;;;;;;;;;;11.40;99.90;;;;;;8325289;28;19936;-70
2023/10/26 17:13:37;;;;;;;;;;;11.40;99.90;;;;;;8324548;28;19933;-70
2023/10/26 17:17:39;;;;;;;;;;;11.40;99.90;;;;;;8325944;28;19925;-70
2023/10/26 17:21:41;;;;;;;;;;;11.40;99.90;;;;;;8322787;28;20423;-70
2023/10/26 17:25:42;;;;;;;;;;;11.40;99.90;;;;;;8322983;28;19929;-70
2023/10/26 17:29:45;;;;;;;;;;;11.40;99.90;;;;;;8323560;28;19933;-70
2023/10/26 17:33:47;;;;;;;;;;;11.40;99.90;;;;;;8323060;28;19972;-70
2023/10/26 17:37:49;;;;;;;;;;;11.40;99.90;;;;;;8324349;28;19933;-70
2023/10/26 17:41:52;;;;;;;;;;;11.40;99.90;;;;;;8315358;28;21655;-70
2023/10/26 17:45:54;;;;;;;;;;;11.40;99.90;;;;;;8303984;28;19983;-70
2023/10/26 17:49:57;;;;;;;;;;;11.30;99.90;;;;;;8289916;28;19971;-70
2023/10/26 17:54:02;;;;;;;;;;;11.30;99.90;;;;;;8327470;28;19932;-70
2023/10/26 17:58:03;;;;;;;;;;;11.40;99.90;;;;;;8325967;28;19925;-70
2023/10/26 18:02:06;;;;;;;;;;;11.40;99.90;;;;;;8321539;28;19928;-70
2023/10/26 18:06:07;;;;;;;;;;;11.30;99.90;;;;;;8324874;28;19933;-70
2023/10/26 18:10:09;;;;;;;;;;;11.30;99.90;;;;;;8317458;28;20300;-70
2023/10/26 18:14:11;;;;;;;;;;;11.30;99.90;;;;;;8324118;28;19932;-70
2023/10/26 18:18:12;;;;;;;;;;;11.30;99.90;;;;;;8324143;28;19933;-70
2023/10/26 18:22:14;;;;;;;;;;;11.30;99.90;;;;;;8304729;28;19982;-70
2023/10/26 18:26:16;;;;;;;;;;;11.20;99.90;;;;;;8322878;28;20234;-70
2023/10/26 18:30:17;;;;;;;;;;;11.30;99.90;;;;;;8324948;28;19929;-70
2023/10/26 18:34:20;;;;;;;;;;;11.20;99.90;;;;;;8323600;28;19925;-70
2023/10/26 18:38:21;;;;;;;;;;;11.20;99.90;;;;;;8321066;28;19929;-70
2023/10/26 18:42:23;;;;;;;;;;;11.20;99.90;;;;;;8322730;28;19929;-70
2023/10/26 18:46:25;;;;;;;;;;;11.20;99.90;;;;;;8318268;28;19932;-70
2023/10/26 18:50:27;;;;;;;;;;;11.20;99.90;;;;;;8320868;28;20339;-70
2023/10/26 18:54:28;;;;;;;;;;;11.20;99.90;;;;;;8301312;28;19925;-70
2023/10/26 18:58:32;;;;;;;;;;;11.20;99.90;;;;;;8320542;28;19936;-70
2023/10/26 19:02:33;;;;;;;;;;;11.20;99.90;;;;;;8321818;28;20396;-70
2023/10/26 19:26:49;;;;;;;;;;;11.20;99.90;;;;;;8321201;28;20399;-70
2023/10/26 19:30:54;;;;;;;;;;;11.20;99.90;;;;;;8319985;28;20049;-70
2023/10/26 19:34:56;;;;;;;;;;;11.20;99.90;;;;;;8318521;28;20083;-70
2023/10/26 19:38:58;;;;;;;;;;;11.30;99.90;;;;;;8319991;28;20377;-70
2023/10/26 19:43:00;;;;;;;;;;;11.30;99.90;;;;;;8319591;28;19929;-70
2023/10/26 19:47:01;;;;;;;;;;;11.30;99.90;;;;;;8301029;28;20356;-70
2023/10/26 19:51:03;;;;;;;;;;;11.30;99.90;;;;;;8336734;28;19925;-70
2023/10/26 19:55:06;;;;;;;;;;;11.30;99.90;;;;;;8320091;28;20368;-70
2023/10/26 19:59:08;;;;;;;;;;;11.30;99.90;;;;;;8319657;28;19971;-70
2023/10/26 20:03:10;;;;;;;;;;;11.30;99.90;;;;;;8320747;28;20376;-70
2023/10/26 20:07:12;;;;;;;;;;;11.30;99.90;;;;;;8322618;28;19925;-70
2023/10/26 20:11:13;;;;;;;;;;;11.20;99.90;;;;;;8323178;28;19929;-70
2023/10/26 20:15:15;;;;;;;;;;;11.30;99.90;;;;;;8322146;28;19925;-70
2023/10/26 20:19:17;;;;;;;;;;;11.30;99.90;;;;;;8330113;28;20022;-70
2023/10/26 20:23:19;;;;;;;;;;;11.20;99.90;;;;;;8328825;28;19932;-70
2023/10/26 20:27:21;;;;;;;;;;;11.20;99.90;;;;;;8327906;28;19948;-70
2023/10/26 20:31:22;;;;;;;;;;;11.20;99.90;;;;;;8328520;28;20003;-70
2023/10/26 20:35:24;;;;;;;;;;;11.20;99.90;;;;;;8326666;28;20708;-70
2023/10/26 20:39:26;;;;;;;;;;;11.20;99.90;;;;;;8324050;28;19925;-70
2023/10/26 20:43:27;;;;;;;;;;;11.20;99.90;;;;;;8327965;28;20012;-70
2023/10/26 20:47:29;;;;;;;;;;;11.20;99.90;;;;;;8326950;28;19925;-70
2023/10/26 20:51:31;;;;;;;;;;;11.20;99.90;;;;;;8310350;28;19931;-70
2023/10/26 20:55:32;;;;;;;;;;;11.20;99.90;;;;;;8327547;28;19932;-70
2023/10/26 20:59:37;;;;;;;;;;;11.20;99.90;;;;;;8328520;28;19968;-70
2023/10/26 21:03:39;;;;;;;;;;;11.20;99.90;;;;;;8350279;28;20257;-70
2023/10/26 21:07:41;;;;;;;;;;;11.20;99.90;;;;;;8357151;28;19924;-70
2023/10/26 21:11:42;;;;;;;;;;;11.20;99.90;;;;;;8355494;28;20289;-70
2023/10/26 21:15:44;;;;;;;;;;;11.30;99.90;;;;;;8359514;28;19987;-70
2023/10/26 21:19:46;;;;;;;;;;;11.20;99.90;;;;;;8356650;28;19987;-70
2023/10/26 21:23:47;;;;;;;;;;;11.30;99.90;;;;;;8359881;28;19925;-70
2023/10/26 21:38:08;;;;;;;;;;;11.30;99.90;;;;;;8352885;28;19982;-70
2023/10/26 21:42:09;;;;;;;;;;;11.30;99.90;;;;;;8359481;28;20228;-70
2023/10/26 22:01:22;;;;;;;;;;;11.20;99.90;;;;;;8354623;28;20390;-70
2023/10/26 22:05:25;;;;;;;;;;;11.30;99.90;;;;;;8357110;28;20433;-70
2023/10/26 22:09:27;;;;;;;;;;;11.30;99.90;;;;;;8353019;28;20114;-70
2023/10/26 22:13:30;;;;;;;;;;;11.30;99.90;;;;;;8352570;28;19929;-70
2023/10/26 22:17:32;;;;;;;;;;;11.30;99.90;;;;;;8357799;28;19929;-70
2023/10/26 22:32:20;;;;;;;;;;;11.30;99.90;;;;;;8327868;28;20491;-70
2023/10/26 22:36:22;;;;;;;;;;;11.30;99.90;;;;;;8356342;28;20459;-70
2023/10/26 22:40:23;;;;;;;;;;;11.30;99.90;;;;;;8355891;28;20340;-70
2023/10/26 22:44:25;;;;;;;;;;;11.30;99.90;;;;;;8355725;28;20446;-70
2023/10/26 22:48:27;;;;;;;;;;;11.30;99.90;;;;;;8338459;28;20391;-70
2023/10/26 22:52:28;;;;;;;;;;;11.30;99.90;;;;;;8355260;28;19936;-70
2023/10/26 22:56:30;;;;;;;;;;;11.30;99.90;;;;;;8354855;28;20365;-70
2023/10/26 23:00:33;;;;;;;;;;;11.30;99.90;;;;;;8355893;28;19925;-70
2023/10/26 23:04:34;;;;;;;;;;;11.30;99.90;;;;;;8354000;28;19925;-70
2023/10/26 23:08:36;;;;;;;;;;;11.30;99.90;;;;;;8349292;28;19940;-70
2023/10/26 23:12:38;;;;;;;;;;;11.30;99.90;;;;;;8355090;28;20268;-70
2023/10/26 23:16:39;;;;;;;;;;;11.30;99.90;;;;;;8329134;28;19936;-70
2023/10/26 23:20:41;;;;;;;;;;;11.30;99.90;;;;;;8352754;28;19937;-70
2023/10/26 23:24:43;;;;;;;;;;;11.30;99.90;;;;;;8352567;28;20403;-70
2023/10/26 23:28:44;;;;;;;;;;;11.30;99.90;;;;;;8354225;28;20369;-70
2023/10/26 23:32:46;;;;;;;;;;;11.20;99.90;;;;;;8338004;28;19947;-70
2023/10/26 23:36:47;;;;;;;;;;;11.20;99.90;;;;;;8353441;28;19924;-70
2023/10/26 23:40:49;;;;;;;;;;;11.20;99.90;;;;;;8337711;28;20411;-70
2023/10/26 23:44:51;;;;;;;;;;;11.30;99.90;;;;;;8360469;28;19968;-70
2023/10/26 23:48:52;;;;;;;;;;;11.30;99.90;;;;;;8355140;28;20707;-70
2023/10/26 23:52:54;;;;;;;;;;;11.30;99.90;;;;;;8362363;28;19932;-70
2023/10/26 23:56:56;;;;;;;;;;;11.30;99.90;;;;;;8359802;28;19925;-70
